createdAt,value
2022-09-15T00:01:40.380Z,95379.81
2022-09-15T00:04:06.465Z,95375.31
2022-09-15T00:06:33.602Z,95374.28
2022-09-15T00:09:01.493Z,95377.16
2022-09-15T00:11:30.830Z,95366.88
2022-09-15T00:13:59.543Z,95374.81
2022-09-15T00:16:27.651Z,95371.06
2022-09-15T00:18:53.844Z,95379.03
2022-09-15T00:21:25.243Z,95371.34
2022-09-15T00:23:51.845Z,95369.78
2022-09-15T00:26:20.992Z,95373.19
2022-09-15T00:28:47.173Z,95369.78
2022-09-15T00:31:21.421Z,95373.22
2022-09-15T00:33:48.767Z,95366.81
2022-09-15T00:36:15.513Z,95373.22
2022-09-15T00:38:41.994Z,95368.72
2022-09-15T00:41:11.293Z,95369.50
2022-09-15T00:44:04.849Z,95366.84
2022-09-15T00:46:34.414Z,95368.19
2022-09-15T00:49:03.167Z,95367.66
2022-09-15T00:51:53.166Z,95378.47
2022-09-15T00:54:52.192Z,95377.13
2022-09-15T00:57:43.841Z,95376.63
2022-09-15T01:00:13.319Z,95379.03
2022-09-15T01:02:44.898Z,95372.66
2022-09-15T01:05:14.507Z,95374.00
2022-09-15T01:07:51.084Z,95374.75
2022-09-15T01:10:22.573Z,95375.56
2022-09-15T01:12:48.390Z,95374.28
2022-09-15T01:15:15.510Z,95368.44
2022-09-15T01:17:47.346Z,95378.75
2022-09-15T01:20:31.555Z,95376.16
2022-09-15T01:23:25.025Z,95383.56
2022-09-15T01:26:15.795Z,95382.50
2022-09-15T01:29:38.716Z,95384.63
2022-09-15T01:32:36.317Z,95380.66
2022-09-15T01:35:06.209Z,95384.09
2022-09-15T01:37:38.850Z,95380.38
2022-09-15T01:40:06.210Z,95380.69
2022-09-15T01:42:34.118Z,95369.81
2022-09-15T01:45:08.571Z,95367.19
2022-09-15T01:47:35.783Z,95366.69
2022-09-15T01:50:07.916Z,95368.00
2022-09-15T01:52:34.366Z,95370.13
2022-09-15T01:55:06.987Z,95369.88
2022-09-15T01:57:32.718Z,95368.28
2022-09-15T01:59:59.628Z,95369.84
2022-09-15T02:02:37.309Z,95371.41
2022-09-15T02:05:10.591Z,95364.81
2022-09-15T02:07:52.795Z,95374.06
2022-09-15T02:10:29.343Z,95374.84
2022-09-15T02:13:04.362Z,95381.22
2022-09-15T02:15:43.144Z,95373.28
2022-09-15T02:18:13.990Z,95375.66
2022-09-15T02:20:49.257Z,95381.44
2022-09-15T02:23:24.343Z,95378.56
2022-09-15T02:25:55.292Z,95375.13
2022-09-15T02:28:28.700Z,95376.97
2022-09-15T02:30:57.936Z,95376.16
2022-09-15T02:33:29.721Z,95369.53
2022-09-15T02:35:55.696Z,95373.25
2022-09-15T02:38:22.332Z,95383.31
2022-09-15T02:40:48.468Z,95382.28
2022-09-15T02:43:16.526Z,95373.00
2022-09-15T02:45:42.928Z,95383.84
2022-09-15T02:48:09.003Z,95376.97
2022-09-15T02:50:36.668Z,95381.75
2022-09-15T02:53:02.967Z,95380.72
2022-09-15T02:55:28.932Z,95380.72
2022-09-15T02:57:55.842Z,95373.81
2022-09-15T03:00:21.804Z,95379.66
2022-09-15T03:02:50.886Z,95374.91
2022-09-15T03:05:19.504Z,95376.22
2022-09-15T03:07:45.417Z,95372.50
2022-09-15T03:10:12.837Z,95377.78
2022-09-15T03:12:40.264Z,95377.00
2022-09-15T03:15:08.455Z,95380.19
2022-09-15T03:17:40.723Z,95378.59
2022-09-15T03:20:09.151Z,95381.75
2022-09-15T03:22:35.532Z,95385.97
2022-09-15T03:25:01.509Z,95386.25
2022-09-15T03:27:27.255Z,95391.28
2022-09-15T03:29:53.066Z,95385.22
2022-09-15T03:32:19.072Z,95390.22
2022-09-15T03:34:45.120Z,95377.28
2022-09-15T03:37:11.063Z,95380.47
2022-09-15T03:39:37.097Z,95383.88
2022-09-15T03:42:03.680Z,95378.06
2022-09-15T03:44:29.600Z,95385.72
2022-09-15T03:46:55.382Z,95377.53
2022-09-15T03:49:21.366Z,95382.31
2022-09-15T03:51:47.111Z,95390.22
2022-09-15T03:54:12.917Z,95387.31
2022-09-15T03:56:38.658Z,95392.06
2022-09-15T03:59:05.915Z,95388.63
2022-09-15T04:01:32.048Z,95392.28
2022-09-15T04:04:02.116Z,95383.06
2022-09-15T04:06:28.013Z,95385.44
2022-09-15T04:08:54.276Z,95385.19
2022-09-15T04:11:21.328Z,95387.56
2022-09-15T04:13:47.849Z,95387.84
2022-09-15T04:16:19.060Z,95395.25
2022-09-15T04:18:45.501Z,95394.69
2022-09-15T04:21:14.630Z,95392.84
2022-09-15T04:23:41.378Z,95388.06
2022-09-15T04:26:11.112Z,95394.94
2022-09-15T04:28:40.531Z,95394.94
2022-09-15T04:31:09.186Z,95390.47
2022-09-15T04:33:38.855Z,95398.09
2022-09-15T04:36:10.590Z,95390.22
2022-09-15T04:38:36.990Z,95393.38
2022-09-15T04:41:03.337Z,95393.91
2022-09-15T04:43:29.536Z,95402.63
2022-09-15T04:45:55.676Z,95401.28
2022-09-15T04:48:22.757Z,95399.44
2022-09-15T04:50:49.064Z,95405.00
2022-09-15T04:53:15.384Z,95407.09
2022-09-15T04:55:41.576Z,95401.84
2022-09-15T04:58:07.897Z,95397.59
2022-09-15T05:00:41.373Z,95406.56
2022-09-15T05:03:07.191Z,95400.75
2022-09-15T05:05:33.682Z,95414.22
2022-09-15T05:08:00.216Z,95406.06
2022-09-15T05:10:26.303Z,95406.59
2022-09-15T05:12:53.022Z,95403.41
2022-09-15T05:15:18.796Z,95401.03
2022-09-15T05:17:44.672Z,95399.19
2022-09-15T05:20:10.520Z,95404.75
2022-09-15T05:22:40.932Z,95406.81
2022-09-15T05:25:07.877Z,95407.91
2022-09-15T05:27:33.756Z,95414.25
2022-09-15T05:30:23.452Z,95410.53
2022-09-15T05:32:45.333Z,95414.50
2022-09-15T05:35:11.061Z,95411.34
2022-09-15T05:37:36.793Z,95412.94
2022-09-15T05:40:08.084Z,95422.19
2022-09-15T05:42:34.707Z,95415.56
2022-09-15T05:45:00.477Z,95414.50
2022-09-15T05:47:26.201Z,95408.69
2022-09-15T05:49:53.063Z,95410.81
2022-09-15T05:52:18.974Z,95405.81
2022-09-15T05:54:44.780Z,95414.75
2022-09-15T05:57:10.727Z,95408.44
2022-09-15T05:59:38.474Z,95416.91
2022-09-15T06:02:04.621Z,95412.69
2022-09-15T06:04:30.556Z,95411.88
2022-09-15T06:06:56.307Z,95416.38
2022-09-15T06:09:22.153Z,95414.25
2022-09-15T06:11:47.922Z,95416.38
2022-09-15T06:14:13.811Z,95412.94
2022-09-15T06:16:39.656Z,95422.97
2022-09-15T06:19:05.718Z,95426.69
2022-09-15T06:21:32.760Z,95429.03
2022-09-15T06:24:02.555Z,95436.44
2022-09-15T06:26:29.086Z,95433.53
2022-09-15T06:29:01.190Z,95433.28
2022-09-15T06:31:30.686Z,95438.28
2022-09-15T06:33:56.973Z,95445.69
2022-09-15T06:36:26.535Z,95432.25
2022-09-15T06:38:53.315Z,95436.72
2022-09-15T06:41:19.269Z,95437.53
2022-09-15T06:43:46.112Z,95441.72
2022-09-15T06:46:17.606Z,95449.13
2022-09-15T06:48:47.546Z,95448.06
2022-09-15T06:51:16.597Z,95454.16
2022-09-15T06:53:43.288Z,95451.28
2022-09-15T06:56:12.358Z,95453.38
2022-09-15T06:58:39.757Z,95457.84
2022-09-15T07:01:09.372Z,95457.31
2022-09-15T07:03:36.758Z,95465.78
2022-09-15T07:06:03.662Z,95461.81
2022-09-15T07:08:30.039Z,95467.91
2022-09-15T07:10:56.475Z,95466.59
2022-09-15T07:13:22.958Z,95467.13
2022-09-15T07:15:53.607Z,95470.28
2022-09-15T07:18:19.817Z,95467.09
2022-09-15T07:20:45.808Z,95473.69
2022-09-15T07:23:11.649Z,95480.06
2022-09-15T07:25:37.454Z,95480.88
2022-09-15T07:28:03.682Z,95487.22
2022-09-15T07:30:29.507Z,95487.44
2022-09-15T07:32:55.242Z,95487.69
2022-09-15T07:35:21.073Z,95491.13
2022-09-15T07:37:51.250Z,95500.69
2022-09-15T07:40:21.363Z,95499.84
2022-09-15T07:42:47.140Z,95499.56
2022-09-15T07:45:13.046Z,95502.16
2022-09-15T07:47:38.972Z,95502.16
2022-09-15T07:50:05.734Z,95500.53
2022-09-15T07:52:31.674Z,95506.38
2022-09-15T07:54:57.495Z,95503.47
2022-09-15T07:57:23.284Z,95511.19
2022-09-15T07:59:49.165Z,95512.03
2022-09-15T08:02:20.119Z,95505.91
2022-09-15T08:04:46.392Z,95512.47
2022-09-15T08:07:12.924Z,95516.19
2022-09-15T08:09:39.875Z,95523.81
2022-09-15T08:12:06.959Z,95530.94
2022-09-15T08:14:33.604Z,95533.91
2022-09-15T08:17:07.013Z,95534.75
2022-09-15T08:19:35.344Z,95531.53
2022-09-15T08:22:01.718Z,95531.25
2022-09-15T08:24:28.497Z,95534.22
2022-09-15T08:26:54.619Z,95538.44
2022-09-15T08:29:20.761Z,95546.56
2022-09-15T08:31:47.571Z,95547.69
2022-09-15T08:34:15.756Z,95551.41
2022-09-15T08:36:42.197Z,95551.66
2022-09-15T08:39:11.439Z,95556.44
2022-09-15T08:41:42.716Z,95550.28
2022-09-15T08:44:23.004Z,95559.81
2022-09-15T08:47:01.767Z,95553.22
2022-09-15T08:49:51.199Z,95552.88
2022-09-15T08:52:34.563Z,95544.91
2022-09-15T08:55:12.571Z,95550.72
2022-09-15T08:57:38.590Z,95549.06
2022-09-15T09:00:06.001Z,95549.47
2022-09-15T09:02:55.317Z,95555.19
2022-09-15T09:05:28.739Z,95552.09
2022-09-15T09:08:08.872Z,95559.91
2022-09-15T09:10:48.325Z,95565.78
2022-09-15T09:13:23.499Z,95564.03
2022-09-15T09:15:55.425Z,95566.31
2022-09-15T09:18:29.794Z,95560.00
2022-09-15T09:21:20.316Z,95566.38
2022-09-15T09:24:00.787Z,95571.31
2022-09-15T09:26:30.234Z,95573.03
2022-09-15T09:29:01.849Z,95578.06
2022-09-15T09:31:28.734Z,95576.56
2022-09-15T09:34:17.655Z,95581.31
2022-09-15T09:36:43.419Z,95583.06
2022-09-15T09:39:14.534Z,95583.66
2022-09-15T09:41:41.700Z,95581.34
2022-09-15T09:44:13.444Z,95581.34
2022-09-15T09:46:40.364Z,95579.94
2022-09-15T09:49:20.248Z,95583.50
2022-09-15T09:51:53.036Z,95584.47
2022-09-15T09:54:21.240Z,95591.91
2022-09-15T09:56:49.108Z,95593.31
2022-09-15T09:59:34.210Z,95589.88
2022-09-15T10:02:15.069Z,95587.22
2022-09-15T10:04:43.767Z,95587.97
2022-09-15T10:07:10.806Z,95591.03
2022-09-15T10:09:37.386Z,95597.69
2022-09-15T10:12:05.240Z,95597.94
2022-09-15T10:14:32.726Z,95592.91
2022-09-15T10:17:09.930Z,95583.84
2022-09-15T10:19:45.368Z,95578.44
2022-09-15T10:22:29.911Z,95590.38
2022-09-15T10:24:56.771Z,95580.66
2022-09-15T10:27:34.440Z,95589.09
2022-09-15T10:30:12.820Z,95599.03
2022-09-15T10:32:39.646Z,95592.44
2022-09-15T10:35:20.005Z,95599.84
2022-09-15T10:38:04.560Z,95599.81
2022-09-15T10:40:33.425Z,95599.13
2022-09-15T10:43:32.310Z,95591.41
2022-09-15T10:46:09.329Z,95584.38
2022-09-15T10:48:53.698Z,95586.09
2022-09-15T10:51:45.791Z,95579.09
2022-09-15T10:54:37.000Z,95582.63
2022-09-15T10:57:34.300Z,95574.22
2022-09-15T11:00:09.606Z,95573.84
2022-09-15T11:02:54.595Z,95575.25
2022-09-15T11:05:32.525Z,95569.69
2022-09-15T11:08:16.188Z,95583.91
2022-09-15T11:10:51.055Z,95581.00
2022-09-15T11:13:26.064Z,95578.94
2022-09-15T11:16:16.756Z,95591.22
2022-09-15T11:19:01.114Z,95587.44
2022-09-15T11:21:44.120Z,95591.47
2022-09-15T11:24:43.715Z,95592.38
2022-09-15T11:27:29.681Z,95600.91
2022-09-15T11:30:04.907Z,95593.16
2022-09-15T11:32:45.684Z,95602.44
2022-09-15T11:35:41.644Z,95600.25
2022-09-15T11:38:25.870Z,95604.94
2022-09-15T11:41:16.255Z,95603.25
2022-09-15T11:44:00.574Z,95601.94
2022-09-15T11:46:51.892Z,95597.63
2022-09-15T11:49:45.500Z,95597.75
2022-09-15T11:52:14.099Z,95599.16
2022-09-15T11:54:50.499Z,95610.75
2022-09-15T11:57:22.651Z,95598.72
2022-09-15T11:59:56.038Z,95603.69
2022-09-15T12:02:26.035Z,95603.81
2022-09-15T12:05:11.791Z,95610.47
2022-09-15T12:07:46.005Z,95605.47
2022-09-15T12:10:22.323Z,95606.16
2022-09-15T12:12:50.759Z,95620.22
2022-09-15T12:15:26.264Z,95611.06
2022-09-15T12:18:41.947Z,95613.94
2022-09-15T12:21:42.449Z,95619.28
2022-09-15T12:24:22.624Z,95610.81
2022-09-15T12:26:48.840Z,95611.09
2022-09-15T12:29:20.597Z,95614.00
2022-09-15T12:31:46.588Z,95616.91
2022-09-15T12:34:37.709Z,95619.63
2022-09-15T12:37:12.036Z,95627.03
2022-09-15T12:39:47.844Z,95633.13
2022-09-15T12:42:22.819Z,95628.91
2022-09-15T12:45:10.895Z,95632.06
2022-09-15T12:47:48.337Z,95630.78
2022-09-15T12:50:16.824Z,95636.84
2022-09-15T12:52:49.948Z,95635.31
2022-09-15T12:55:20.479Z,95642.72
2022-09-15T12:57:56.378Z,95639.53
2022-09-15T13:00:22.581Z,95640.88
2022-09-15T13:02:50.054Z,95637.72
2022-09-15T13:05:38.822Z,95640.88
2022-09-15T13:08:11.309Z,95639.00
2022-09-15T13:11:08.765Z,95643.69
2022-09-15T13:13:45.569Z,95629.38
2022-09-15T13:16:45.734Z,95636.81
2022-09-15T13:19:23.805Z,95636.50
2022-09-15T13:22:11.193Z,95639.59
2022-09-15T13:25:12.924Z,95636.69
2022-09-15T13:27:52.765Z,95636.13
2022-09-15T13:30:43.266Z,95632.28
2022-09-15T13:40:05.700Z,95624.75
2022-09-15T13:43:06.775Z,95633.75
2022-09-15T13:45:38.767Z,95625.97
2022-09-15T13:48:25.715Z,95627.22
2022-09-15T13:51:05.318Z,95623.84
2022-09-15T13:53:44.862Z,95620.56
2022-09-15T13:56:34.889Z,95616.13
2022-09-15T13:59:11.694Z,95618.63
2022-09-15T14:01:41.479Z,95614.81
2022-09-15T14:04:13.804Z,95612.94
2022-09-15T14:06:42.075Z,95616.06
2022-09-15T14:09:39.034Z,95608.88
2022-09-15T14:12:10.052Z,95610.47
2022-09-15T14:14:41.072Z,95613.50
2022-09-15T14:17:24.279Z,95613.22
2022-09-15T14:19:55.132Z,95620.97
2022-09-15T14:22:21.151Z,95623.88
2022-09-15T14:24:47.099Z,95624.22
2022-09-15T14:27:21.308Z,95627.16
2022-09-15T14:29:49.566Z,95618.81
2022-09-15T14:32:16.893Z,95614.53
2022-09-15T14:34:44.033Z,95622.75
2022-09-15T14:37:23.244Z,95623.78
2022-09-15T14:39:55.525Z,95618.53
2022-09-15T14:42:29.028Z,95609.50
2022-09-15T14:47:42.560Z,95619.25
2022-09-15T14:50:09.056Z,95617.69
2022-09-15T14:52:42.437Z,95616.63
2022-09-15T14:55:29.843Z,95611.59
2022-09-15T14:58:01.444Z,95618.50
2022-09-15T15:00:33.256Z,95620.91
2022-09-15T15:03:06.110Z,95618.81
2022-09-15T15:05:37.865Z,95619.66
2022-09-15T15:08:06.444Z,95612.53
2022-09-15T15:10:35.859Z,95611.25
2022-09-15T15:13:08.208Z,95610.69
2022-09-15T15:15:37.062Z,95606.44
2022-09-15T15:18:28.204Z,95616.00
2022-09-15T15:20:57.343Z,95613.13
2022-09-15T15:23:25.161Z,95613.63
2022-09-15T15:25:51.614Z,95606.50
2022-09-15T15:28:35.042Z,95609.38
2022-09-15T15:31:20.039Z,95604.59
2022-09-15T15:33:51.475Z,95611.47
2022-09-15T15:36:21.608Z,95606.50
2022-09-15T15:38:52.780Z,95625.53
2022-09-15T15:41:22.156Z,95614.19
2022-09-15T15:44:14.255Z,95609.69
2022-09-15T15:47:02.967Z,95610.97
2022-09-15T15:49:31.835Z,95615.19
2022-09-15T15:52:00.062Z,95611.81
2022-09-15T15:54:26.590Z,95617.09
2022-09-15T15:56:52.854Z,95617.63
2022-09-15T15:59:19.223Z,95614.72
2022-09-15T16:01:52.391Z,95616.03
2022-09-15T16:04:18.423Z,95612.81
2022-09-15T16:06:45.164Z,95608.63
2022-09-15T16:09:16.910Z,95616.81
2022-09-15T16:11:42.734Z,95614.91
2022-09-15T16:14:12.680Z,95612.03
2022-09-15T16:16:38.509Z,95603.56
2022-09-15T16:19:04.339Z,95610.69
2022-09-15T16:21:36.899Z,95607.25
2022-09-15T16:24:04.534Z,95604.88
2022-09-15T16:26:30.786Z,95604.84
2022-09-15T16:28:57.429Z,95599.25
2022-09-15T16:31:23.358Z,95598.47
2022-09-15T16:33:49.323Z,95596.38
2022-09-15T16:36:17.356Z,95593.22
2022-09-15T16:38:44.344Z,95594.78
2022-09-15T16:41:18.877Z,95583.19
2022-09-15T16:43:46.531Z,95594.25
2022-09-15T16:46:13.344Z,95604.09
2022-09-15T16:48:41.909Z,95595.88
2022-09-15T16:51:25.195Z,95603.03
2022-09-15T16:53:53.075Z,95602.78
2022-09-15T16:56:19.007Z,95605.94
2022-09-15T16:58:44.983Z,95601.19
2022-09-15T17:01:18.977Z,95608.09
2022-09-15T17:03:45.121Z,95602.81
2022-09-15T17:06:16.969Z,95607.06
2022-09-15T17:08:43.338Z,95612.06
2022-09-15T17:11:16.747Z,95609.94
2022-09-15T17:13:43.040Z,95608.63
2022-09-15T17:16:09.890Z,95616.31
2022-09-15T17:18:35.717Z,95621.88
2022-09-15T17:21:01.724Z,95623.72
2022-09-15T17:23:31.591Z,95627.94
2022-09-15T17:26:00.368Z,95629.25
2022-09-15T17:28:29.048Z,95634.31
2022-09-15T17:31:00.316Z,95633.50
2022-09-15T17:33:27.386Z,95639.06
2022-09-15T17:35:53.362Z,95642.50
2022-09-15T17:38:22.486Z,95634.56
2022-09-15T17:40:49.774Z,95639.31
2022-09-15T17:43:18.764Z,95631.09
2022-09-15T17:45:45.303Z,95634.81
2022-09-15T17:48:11.614Z,95630.00
2022-09-15T17:50:39.100Z,95628.47
2022-09-15T17:53:23.415Z,95632.66
2022-09-15T17:55:50.218Z,95630.81
2022-09-15T17:58:16.432Z,95634.22
2022-09-15T18:00:43.331Z,95631.03
2022-09-15T18:03:18.701Z,95637.91
2022-09-15T18:05:44.886Z,95625.50
2022-09-15T18:08:10.779Z,95635.78
2022-09-15T18:10:36.837Z,95632.59
2022-09-15T18:13:04.077Z,95628.63
2022-09-15T18:15:32.331Z,95637.34
2022-09-15T18:18:05.109Z,95639.47
2022-09-15T18:20:32.919Z,95637.28
2022-09-15T18:22:59.456Z,95641.78
2022-09-15T18:25:31.459Z,95651.84
2022-09-15T18:27:58.435Z,95647.09
2022-09-15T18:30:27.978Z,95654.47
2022-09-15T18:32:53.942Z,95661.88
2022-09-15T18:35:20.577Z,95658.19
2022-09-15T18:37:49.078Z,95656.34
2022-09-15T18:40:17.226Z,95660.56
2022-09-15T18:42:43.913Z,95661.59
2022-09-15T18:45:12.994Z,95662.94
2022-09-15T18:47:40.233Z,95670.34
2022-09-15T18:50:06.445Z,95673.00
2022-09-15T18:52:36.620Z,95668.22
2022-09-15T18:55:04.381Z,95666.94
2022-09-15T18:57:34.243Z,95666.06
2022-09-15T19:00:00.419Z,95671.09
2022-09-15T19:02:26.596Z,95677.19
2022-09-15T19:04:52.731Z,95680.94
2022-09-15T19:07:18.667Z,95684.31
2022-09-15T19:09:44.538Z,95674.81
2022-09-15T19:12:10.329Z,95675.66
2022-09-15T19:14:36.124Z,95678.03
2022-09-15T19:17:02.005Z,95683.00
2022-09-15T19:19:28.027Z,95685.19
2022-09-15T19:21:53.783Z,95676.41
2022-09-15T19:24:19.646Z,95686.22
2022-09-15T19:26:46.476Z,95678.84
2022-09-15T19:29:13.235Z,95685.22
2022-09-15T19:31:41.955Z,95681.72
2022-09-15T19:34:08.432Z,95683.84
2022-09-15T19:36:34.265Z,95680.09
2022-09-15T19:39:02.475Z,95678.84
2022-09-15T19:41:29.522Z,95683.88
2022-09-15T19:43:55.445Z,95680.69
2022-09-15T19:46:23.524Z,95682.97
2022-09-15T19:48:50.440Z,95688.50
2022-09-15T19:51:17.518Z,95687.78
2022-09-15T19:53:44.586Z,95688.81
2022-09-15T19:56:21.453Z,95685.88
2022-09-15T19:58:48.483Z,95679.31
2022-09-15T20:01:14.741Z,95672.44
2022-09-15T20:03:40.577Z,95686.44
2022-09-15T20:06:07.785Z,95690.63
2022-09-15T20:08:35.322Z,95692.16
2022-09-15T20:11:05.368Z,95693.00
2022-09-15T20:13:31.678Z,95689.25
2022-09-15T20:16:00.215Z,95692.19
2022-09-15T20:18:27.175Z,95689.06
2022-09-15T20:20:54.102Z,95697.75
2022-09-15T20:23:20.803Z,95696.38
2022-09-15T20:26:08.143Z,95697.94
2022-09-15T20:28:35.502Z,95699.53
2022-09-15T20:31:07.508Z,95696.34
2022-09-15T20:33:34.952Z,95700.84
2022-09-15T20:36:06.709Z,95700.81
2022-09-15T20:38:34.224Z,95697.91
2022-09-15T20:41:01.141Z,95698.94
2022-09-15T20:43:27.323Z,95700.44
2022-09-15T20:46:01.155Z,95695.66
2022-09-15T20:48:29.615Z,95699.59
2022-09-15T20:51:10.317Z,95705.94
2022-09-15T20:53:37.906Z,95703.03
2022-09-15T20:56:03.863Z,95703.00
2022-09-15T20:58:33.760Z,95701.41
2022-09-15T21:01:04.018Z,95710.91
2022-09-15T21:03:30.130Z,95719.06
2022-09-15T21:06:05.527Z,95723.28
2022-09-15T21:08:31.687Z,95715.41
2022-09-15T21:10:58.696Z,95716.19
2022-09-15T21:13:28.383Z,95719.25
2022-09-15T21:15:57.055Z,95718.25
2022-09-15T21:18:28.358Z,95719.25
2022-09-15T21:20:59.086Z,95723.53
2022-09-15T21:23:25.855Z,95724.06
2022-09-15T21:26:03.918Z,95717.97
2022-09-15T21:28:30.279Z,95723.72
2022-09-15T21:31:04.978Z,95722.81
2022-09-15T21:33:31.579Z,95729.94
2022-09-15T21:36:09.116Z,95734.06
2022-09-15T21:38:40.610Z,95739.44
2022-09-15T21:41:08.727Z,95738.81
2022-09-15T21:43:36.930Z,95733.69
2022-09-15T21:46:04.468Z,95735.41
2022-09-15T21:48:32.143Z,95743.06
2022-09-15T21:50:58.455Z,95740.53
2022-09-15T21:53:24.350Z,95741.28
2022-09-15T21:55:51.037Z,95739.75
2022-09-15T21:58:21.717Z,95736.66
2022-09-15T22:00:49.003Z,95741.53
2022-09-15T22:03:15.865Z,95740.91
2022-09-15T22:05:46.203Z,95729.97
2022-09-15T22:08:15.501Z,95737.94
2022-09-15T22:10:42.940Z,95732.91
2022-09-15T22:13:10.489Z,95734.72
2022-09-15T22:15:36.790Z,95732.91
2022-09-15T22:18:03.207Z,95739.22
2022-09-15T22:20:29.472Z,95737.31
2022-09-15T22:22:55.885Z,95735.63
2022-09-15T22:25:22.190Z,95735.53
2022-09-15T22:27:47.951Z,95742.75
2022-09-15T22:30:13.756Z,95736.50
2022-09-15T22:32:39.554Z,95730.66
2022-09-15T22:35:05.986Z,95732.75
2022-09-15T22:37:33.110Z,95727.53
2022-09-15T22:39:59.669Z,95730.25
2022-09-15T22:42:25.895Z,95736.19
2022-09-15T22:44:51.826Z,95727.88
2022-09-15T22:47:18.026Z,95727.81
2022-09-15T22:49:43.997Z,95722.84
2022-09-15T22:52:10.295Z,95729.06
2022-09-15T22:54:36.100Z,95729.00
2022-09-15T22:57:02.276Z,95724.50
2022-09-15T22:59:28.136Z,95729.13
2022-09-15T23:01:54.385Z,95724.06
2022-09-15T23:04:20.663Z,95726.91
2022-09-15T23:06:48.256Z,95732.28
2022-09-15T23:09:14.591Z,95733.44
2022-09-15T23:11:41.050Z,95732.97
2022-09-15T23:14:12.331Z,95732.97
2022-09-15T23:16:38.214Z,95741.22
2022-09-15T23:19:04.488Z,95732.50
2022-09-15T23:21:30.361Z,95730.38
2022-09-15T23:23:56.695Z,95736.47
2022-09-15T23:26:26.219Z,95728.22
2022-09-15T23:28:52.817Z,95736.00
2022-09-15T23:31:19.482Z,95736.31
2022-09-15T23:33:46.321Z,95733.47
2022-09-15T23:36:16.114Z,95732.13
2022-09-15T23:38:43.862Z,95728.75
2022-09-15T23:41:13.722Z,95726.03
2022-09-15T23:43:39.682Z,95733.16
2022-09-15T23:46:06.267Z,95733.16
2022-09-15T23:48:32.312Z,95736.22
2022-09-15T23:50:58.276Z,95729.31
2022-09-15T23:53:24.766Z,95728.88
2022-09-15T23:55:50.560Z,95728.09
2022-09-15T23:58:16.882Z,95722.00
